sensor_id;sensor_type;location;lat;lon;timestamp;P1;durP1;ratioP1;P2;durP2;ratioP2
23113;SDS011;11726;50.122;8.832;2023-04-06T00:00:55;11.43;;;7.05;;
23113;SDS011;11726;50.122;8.832;2023-04-06T00:03:21;8.60;;;6.60;;
23113;SDS011;11726;50.122;8.832;2023-04-06T00:05:48;11.57;;;6.93;;
23113;SDS011;11726;50.122;8.832;2023-04-06T00:08:15;12.45;;;6.82;;
23113;SDS011;11726;50.122;8.832;2023-04-06T00:10:42;12.98;;;6.70;;
23113;SDS011;11726;50.122;8.832;2023-04-06T00:13:09;11.77;;;7.07;;
23113;SDS011;11726;50.122;8.832;2023-04-06T00:15:36;12.90;;;7.40;;
23113;SDS011;11726;50.122;8.832;2023-04-06T00:18:03;10.65;;;6.80;;
23113;SDS011;11726;50.122;8.832;2023-04-06T00:20:30;12.25;;;7.47;;
23113;SDS011;11726;50.122;8.832;2023-04-06T00:23:00;10.68;;;7.32;;
23113;SDS011;11726;50.122;8.832;2023-04-06T00:25:27;11.25;;;7.35;;
23113;SDS011;11726;50.122;8.832;2023-04-06T00:27:53;12.57;;;7.35;;
23113;SDS011;11726;50.122;8.832;2023-04-06T00:30:20;11.02;;;7.43;;
23113;SDS011;11726;50.122;8.832;2023-04-06T00:32:47;11.00;;;7.82;;
23113;SDS011;11726;50.122;8.832;2023-04-06T00:35:14;14.40;;;7.97;;
23113;SDS011;11726;50.122;8.832;2023-04-06T00:37:42;10.63;;;6.95;;
23113;SDS011;11726;50.122;8.832;2023-04-06T00:40:12;12.63;;;7.53;;
23113;SDS011;11726;50.122;8.832;2023-04-06T00:42:40;12.00;;;7.70;;
23113;SDS011;11726;50.122;8.832;2023-04-06T00:45:07;10.70;;;6.90;;
23113;SDS011;11726;50.122;8.832;2023-04-06T00:47:35;12.40;;;7.00;;
23113;SDS011;11726;50.122;8.832;2023-04-06T00:50:02;11.90;;;7.15;;
23113;SDS011;11726;50.122;8.832;2023-04-06T00:52:31;11.00;;;6.88;;
23113;SDS011;11726;50.122;8.832;2023-04-06T00:54:58;11.38;;;7.18;;
23113;SDS011;11726;50.122;8.832;2023-04-06T00:57:24;12.20;;;7.18;;
23113;SDS011;11726;50.122;8.832;2023-04-06T00:59:51;13.40;;;7.47;;
23113;SDS011;11726;50.122;8.832;2023-04-06T01:02:19;11.77;;;7.45;;
23113;SDS011;11726;50.122;8.832;2023-04-06T01:04:46;9.52;;;6.82;;
23113;SDS011;11726;50.122;8.832;2023-04-06T01:07:13;10.10;;;6.90;;
23113;SDS011;11726;50.122;8.832;2023-04-06T01:09:39;10.25;;;6.70;;
23113;SDS011;11726;50.122;8.832;2023-04-06T01:12:08;13.73;;;7.43;;
23113;SDS011;11726;50.122;8.832;2023-04-06T01:14:34;10.88;;;7.25;;
23113;SDS011;11726;50.122;8.832;2023-04-06T01:17:01;8.73;;;6.78;;
23113;SDS011;11726;50.122;8.832;2023-04-06T01:19:29;9.52;;;6.93;;
23113;SDS011;11726;50.122;8.832;2023-04-06T01:21:55;11.43;;;7.20;;
23113;SDS011;11726;50.122;8.832;2023-04-06T01:24:22;12.68;;;7.40;;
23113;SDS011;11726;50.122;8.832;2023-04-06T01:26:49;15.02;;;7.97;;
23113;SDS011;11726;50.122;8.832;2023-04-06T01:29:16;9.80;;;6.93;;
23113;SDS011;11726;50.122;8.832;2023-04-06T01:31:43;12.00;;;7.25;;
23113;SDS011;11726;50.122;8.832;2023-04-06T01:34:12;10.82;;;7.47;;
23113;SDS011;11726;50.122;8.832;2023-04-06T01:36:39;14.38;;;7.35;;
23113;SDS011;11726;50.122;8.832;2023-04-06T01:39:07;12.40;;;7.68;;
23113;SDS011;11726;50.122;8.832;2023-04-06T01:41:34;12.05;;;7.22;;
23113;SDS011;11726;50.122;8.832;2023-04-06T01:44:01;11.00;;;7.15;;
23113;SDS011;11726;50.122;8.832;2023-04-06T01:46:28;14.27;;;7.32;;
23113;SDS011;11726;50.122;8.832;2023-04-06T01:48:55;11.30;;;7.10;;
23113;SDS011;11726;50.122;8.832;2023-04-06T01:51:22;12.68;;;7.72;;
23113;SDS011;11726;50.122;8.832;2023-04-06T01:53:50;12.52;;;7.38;;
23113;SDS011;11726;50.122;8.832;2023-04-06T01:56:17;11.13;;;7.25;;
23113;SDS011;11726;50.122;8.832;2023-04-06T01:58:44;13.88;;;7.55;;
23113;SDS011;11726;50.122;8.832;2023-04-06T02:01:10;11.45;;;6.97;;
23113;SDS011;11726;50.122;8.832;2023-04-06T02:03:37;14.20;;;7.03;;
23113;SDS011;11726;50.122;8.832;2023-04-06T02:06:04;13.90;;;7.82;;
23113;SDS011;11726;50.122;8.832;2023-04-06T02:08:31;9.43;;;6.88;;
23113;SDS011;11726;50.122;8.832;2023-04-06T02:10:58;11.82;;;6.75;;
23113;SDS011;11726;50.122;8.832;2023-04-06T02:13:25;13.02;;;8.23;;
23113;SDS011;11726;50.122;8.832;2023-04-06T02:15:51;9.50;;;6.53;;
23113;SDS011;11726;50.122;8.832;2023-04-06T02:18:18;11.00;;;6.97;;
23113;SDS011;11726;50.122;8.832;2023-04-06T02:20:45;10.15;;;7.20;;
23113;SDS011;11726;50.122;8.832;2023-04-06T02:23:12;14.88;;;7.60;;
23113;SDS011;11726;50.122;8.832;2023-04-06T02:25:39;11.57;;;7.55;;
23113;SDS011;11726;50.122;8.832;2023-04-06T02:28:07;11.82;;;7.05;;
23113;SDS011;11726;50.122;8.832;2023-04-06T02:30:34;11.73;;;7.15;;
23113;SDS011;11726;50.122;8.832;2023-04-06T02:33:01;14.70;;;7.32;;
23113;SDS011;11726;50.122;8.832;2023-04-06T02:35:29;11.82;;;7.47;;
23113;SDS011;11726;50.122;8.832;2023-04-06T02:37:57;11.93;;;7.20;;
23113;SDS011;11726;50.122;8.832;2023-04-06T02:40:23;10.98;;;7.30;;
23113;SDS011;11726;50.122;8.832;2023-04-06T02:42:50;10.35;;;7.18;;
23113;SDS011;11726;50.122;8.832;2023-04-06T02:45:17;12.25;;;7.82;;
23113;SDS011;11726;50.122;8.832;2023-04-06T02:47:44;9.77;;;7.25;;
23113;SDS011;11726;50.122;8.832;2023-04-06T02:50:12;10.75;;;7.38;;
23113;SDS011;11726;50.122;8.832;2023-04-06T02:52:39;11.73;;;7.63;;
23113;SDS011;11726;50.122;8.832;2023-04-06T02:55:06;9.43;;;6.88;;
23113;SDS011;11726;50.122;8.832;2023-04-06T02:57:33;12.98;;;7.18;;
23113;SDS011;11726;50.122;8.832;2023-04-06T03:00:00;11.88;;;7.57;;
23113;SDS011;11726;50.122;8.832;2023-04-06T03:02:27;12.13;;;7.57;;
23113;SDS011;11726;50.122;8.832;2023-04-06T03:04:54;11.13;;;7.18;;
23113;SDS011;11726;50.122;8.832;2023-04-06T03:07:21;12.25;;;7.10;;
23113;SDS011;11726;50.122;8.832;2023-04-06T03:09:51;11.52;;;7.60;;
23113;SDS011;11726;50.122;8.832;2023-04-06T03:12:18;14.55;;;7.80;;
23113;SDS011;11726;50.122;8.832;2023-04-06T03:14:44;12.68;;;6.97;;
23113;SDS011;11726;50.122;8.832;2023-04-06T03:17:11;11.70;;;7.40;;
23113;SDS011;11726;50.122;8.832;2023-04-06T03:19:38;11.52;;;7.78;;
23113;SDS011;11726;50.122;8.832;2023-04-06T03:22:04;13.65;;;8.07;;
23113;SDS011;11726;50.122;8.832;2023-04-06T03:24:31;12.38;;;7.93;;
23113;SDS011;11726;50.122;8.832;2023-04-06T03:26:58;12.98;;;7.70;;
23113;SDS011;11726;50.122;8.832;2023-04-06T03:29:25;14.68;;;7.65;;
23113;SDS011;11726;50.122;8.832;2023-04-06T03:31:51;11.00;;;7.88;;
23113;SDS011;11726;50.122;8.832;2023-04-06T03:34:18;10.70;;;7.55;;
23113;SDS011;11726;50.122;8.832;2023-04-06T03:36:45;13.18;;;8.38;;
23113;SDS011;11726;50.122;8.832;2023-04-06T03:39:16;12.82;;;8.00;;
23113;SDS011;11726;50.122;8.832;2023-04-06T03:41:43;13.32;;;7.78;;
23113;SDS011;11726;50.122;8.832;2023-04-06T03:44:11;11.73;;;8.20;;
23113;SDS011;11726;50.122;8.832;2023-04-06T03:46:37;15.13;;;8.68;;
23113;SDS011;11726;50.122;8.832;2023-04-06T03:49:04;13.48;;;8.65;;
23113;SDS011;11726;50.122;8.832;2023-04-06T03:51:31;15.40;;;9.23;;
23113;SDS011;11726;50.122;8.832;2023-04-06T03:53:58;12.20;;;8.07;;
23113;SDS011;11726;50.122;8.832;2023-04-06T03:56:24;13.98;;;8.38;;
23113;SDS011;11726;50.122;8.832;2023-04-06T03:58:51;14.40;;;8.55;;
23113;SDS011;11726;50.122;8.832;2023-04-06T04:01:18;13.00;;;8.25;;
23113;SDS011;11726;50.122;8.832;2023-04-06T04:03:45;13.60;;;8.15;;
23113;SDS011;11726;50.122;8.832;2023-04-06T04:06:14;15.93;;;8.25;;
23113;SDS011;11726;50.122;8.832;2023-04-06T04:08:40;15.60;;;8.13;;
23113;SDS011;11726;50.122;8.832;2023-04-06T04:11:07;14.13;;;8.73;;
23113;SDS011;11726;50.122;8.832;2023-04-06T04:13:34;14.98;;;7.95;;
23113;SDS011;11726;50.122;8.832;2023-04-06T04:16:01;14.48;;;8.15;;
23113;SDS011;11726;50.122;8.832;2023-04-06T04:18:28;13.35;;;8.77;;
23113;SDS011;11726;50.122;8.832;2023-04-06T04:20:55;14.27;;;8.23;;
23113;SDS011;11726;50.122;8.832;2023-04-06T04:23:21;15.90;;;8.32;;
23113;SDS011;11726;50.122;8.832;2023-04-06T04:25:48;14.68;;;8.52;;
23113;SDS011;11726;50.122;8.832;2023-04-06T04:28:15;18.05;;;8.55;;
23113;SDS011;11726;50.122;8.832;2023-04-06T04:30:42;15.55;;;9.15;;
23113;SDS011;11726;50.122;8.832;2023-04-06T04:33:09;18.27;;;9.32;;
23113;SDS011;11726;50.122;8.832;2023-04-06T04:35:36;19.83;;;9.82;;
23113;SDS011;11726;50.122;8.832;2023-04-06T04:38:02;14.73;;;9.45;;
23113;SDS011;11726;50.122;8.832;2023-04-06T04:40:30;14.02;;;9.38;;
23113;SDS011;11726;50.122;8.832;2023-04-06T04:42:56;13.90;;;8.45;;
23113;SDS011;11726;50.122;8.832;2023-04-06T04:45:23;16.55;;;8.75;;
23113;SDS011;11726;50.122;8.832;2023-04-06T04:47:51;18.48;;;8.93;;
23113;SDS011;11726;50.122;8.832;2023-04-06T04:50:18;12.98;;;8.73;;
23113;SDS011;11726;50.122;8.832;2023-04-06T04:52:44;14.52;;;8.57;;
23113;SDS011;11726;50.122;8.832;2023-04-06T04:55:11;15.13;;;9.02;;
23113;SDS011;11726;50.122;8.832;2023-04-06T04:57:38;16.10;;;9.13;;
23113;SDS011;11726;50.122;8.832;2023-04-06T05:00:05;15.38;;;9.65;;
23113;SDS011;11726;50.122;8.832;2023-04-06T05:02:32;14.63;;;9.15;;
23113;SDS011;11726;50.122;8.832;2023-04-06T05:04:59;12.98;;;8.85;;
23113;SDS011;11726;50.122;8.832;2023-04-06T05:07:26;17.73;;;9.70;;
23113;SDS011;11726;50.122;8.832;2023-04-06T05:09:53;17.38;;;8.60;;
23113;SDS011;11726;50.122;8.832;2023-04-06T05:12:19;16.65;;;9.55;;
23113;SDS011;11726;50.122;8.832;2023-04-06T05:14:47;20.08;;;10.02;;
23113;SDS011;11726;50.122;8.832;2023-04-06T05:17:14;15.85;;;9.05;;
23113;SDS011;11726;50.122;8.832;2023-04-06T05:19:40;15.80;;;8.85;;
23113;SDS011;11726;50.122;8.832;2023-04-06T05:22:07;17.73;;;9.23;;
23113;SDS011;11726;50.122;8.832;2023-04-06T05:24:34;15.90;;;8.80;;
23113;SDS011;11726;50.122;8.832;2023-04-06T05:27:01;15.40;;;9.07;;
23113;SDS011;11726;50.122;8.832;2023-04-06T05:29:28;14.05;;;8.57;;
23113;SDS011;11726;50.122;8.832;2023-04-06T05:31:55;13.85;;;9.05;;
23113;SDS011;11726;50.122;8.832;2023-04-06T05:34:22;14.73;;;8.73;;
23113;SDS011;11726;50.122;8.832;2023-04-06T05:36:49;15.15;;;9.38;;
23113;SDS011;11726;50.122;8.832;2023-04-06T05:39:16;13.35;;;8.98;;
23113;SDS011;11726;50.122;8.832;2023-04-06T05:41:43;16.15;;;9.45;;
23113;SDS011;11726;50.122;8.832;2023-04-06T05:44:10;17.90;;;10.07;;
23113;SDS011;11726;50.122;8.832;2023-04-06T05:46:37;16.08;;;9.32;;
23113;SDS011;11726;50.122;8.832;2023-04-06T05:49:05;19.42;;;9.70;;
23113;SDS011;11726;50.122;8.832;2023-04-06T05:51:32;17.63;;;10.88;;
23113;SDS011;11726;50.122;8.832;2023-04-06T05:55:03;21.95;;;11.65;;
23113;SDS011;11726;50.122;8.832;2023-04-06T05:57:30;18.60;;;10.73;;
23113;SDS011;11726;50.122;8.832;2023-04-06T05:59:57;21.40;;;11.20;;
23113;SDS011;11726;50.122;8.832;2023-04-06T06:02:24;17.00;;;10.88;;
23113;SDS011;11726;50.122;8.832;2023-04-06T06:04:51;18.25;;;11.25;;
23113;SDS011;11726;50.122;8.832;2023-04-06T06:07:17;21.48;;;10.95;;
23113;SDS011;11726;50.122;8.832;2023-04-06T06:09:44;23.20;;;11.32;;
23113;SDS011;11726;50.122;8.832;2023-04-06T06:12:11;18.60;;;10.73;;
23113;SDS011;11726;50.122;8.832;2023-04-06T06:14:39;17.17;;;10.73;;
23113;SDS011;11726;50.122;8.832;2023-04-06T06:17:06;20.80;;;11.63;;
23113;SDS011;11726;50.122;8.832;2023-04-06T06:19:36;15.57;;;10.77;;
23113;SDS011;11726;50.122;8.832;2023-04-06T06:22:03;17.85;;;11.30;;
23113;SDS011;11726;50.122;8.832;2023-04-06T06:24:31;20.27;;;11.77;;
23113;SDS011;11726;50.122;8.832;2023-04-06T06:26:57;22.50;;;11.85;;
23113;SDS011;11726;50.122;8.832;2023-04-06T06:29:24;19.77;;;11.10;;
23113;SDS011;11726;50.122;8.832;2023-04-06T06:31:58;18.77;;;11.48;;
23113;SDS011;11726;50.122;8.832;2023-04-06T06:34:25;17.48;;;11.18;;
23113;SDS011;11726;50.122;8.832;2023-04-06T06:36:52;21.00;;;12.05;;
23113;SDS011;11726;50.122;8.832;2023-04-06T06:39:21;17.63;;;10.73;;
23113;SDS011;11726;50.122;8.832;2023-04-06T06:41:47;17.05;;;10.98;;
23113;SDS011;11726;50.122;8.832;2023-04-06T06:44:14;15.27;;;10.45;;
23113;SDS011;11726;50.122;8.832;2023-04-06T06:46:42;16.30;;;10.43;;
23113;SDS011;11726;50.122;8.832;2023-04-06T06:49:09;15.63;;;10.77;;
23113;SDS011;11726;50.122;8.832;2023-04-06T06:51:38;17.73;;;11.35;;
23113;SDS011;11726;50.122;8.832;2023-04-06T06:54:05;13.32;;;9.48;;
23113;SDS011;11726;50.122;8.832;2023-04-06T06:56:32;15.93;;;10.63;;
23113;SDS011;11726;50.122;8.832;2023-04-06T06:58:59;16.48;;;11.15;;
23113;SDS011;11726;50.122;8.832;2023-04-06T07:01:26;14.40;;;10.60;;
23113;SDS011;11726;50.122;8.832;2023-04-06T07:03:52;18.13;;;11.35;;
23113;SDS011;11726;50.122;8.832;2023-04-06T07:06:19;17.80;;;10.57;;
23113;SDS011;11726;50.122;8.832;2023-04-06T07:08:47;14.73;;;9.75;;
23113;SDS011;11726;50.122;8.832;2023-04-06T07:11:14;16.92;;;10.57;;
23113;SDS011;11726;50.122;8.832;2023-04-06T07:13:41;14.23;;;9.70;;
23113;SDS011;11726;50.122;8.832;2023-04-06T07:16:09;13.55;;;9.43;;
23113;SDS011;11726;50.122;8.832;2023-04-06T07:18:36;15.70;;;10.32;;
23113;SDS011;11726;50.122;8.832;2023-04-06T07:21:03;12.45;;;9.40;;
23113;SDS011;11726;50.122;8.832;2023-04-06T07:23:30;21.10;;;15.00;;
23113;SDS011;11726;50.122;8.832;2023-04-06T07:25:56;14.10;;;10.57;;
23113;SDS011;11726;50.122;8.832;2023-04-06T07:28:23;13.20;;;9.80;;
23113;SDS011;11726;50.122;8.832;2023-04-06T07:30:50;14.60;;;9.52;;
23113;SDS011;11726;50.122;8.832;2023-04-06T07:33:17;12.27;;;9.43;;
23113;SDS011;11726;50.122;8.832;2023-04-06T07:35:44;14.13;;;9.88;;
23113;SDS011;11726;50.122;8.832;2023-04-06T07:38:11;13.20;;;9.00;;
23113;SDS011;11726;50.122;8.832;2023-04-06T07:40:38;14.07;;;9.48;;
23113;SDS011;11726;50.122;8.832;2023-04-06T07:43:05;13.40;;;9.25;;
23113;SDS011;11726;50.122;8.832;2023-04-06T07:45:32;14.35;;;9.70;;
23113;SDS011;11726;50.122;8.832;2023-04-06T07:47:59;13.57;;;9.50;;
23113;SDS011;11726;50.122;8.832;2023-04-06T07:50:26;15.90;;;10.00;;
23113;SDS011;11726;50.122;8.832;2023-04-06T07:52:52;12.75;;;9.88;;
23113;SDS011;11726;50.122;8.832;2023-04-06T07:55:19;14.95;;;9.65;;
23113;SDS011;11726;50.122;8.832;2023-04-06T07:57:46;14.90;;;9.43;;
23113;SDS011;11726;50.122;8.832;2023-04-06T08:00:13;13.50;;;9.40;;
23113;SDS011;11726;50.122;8.832;2023-04-06T08:02:40;12.50;;;9.75;;
23113;SDS011;11726;50.122;8.832;2023-04-06T08:08:24;12.48;;;9.20;;
23113;SDS011;11726;50.122;8.832;2023-04-06T08:10:51;12.57;;;9.43;;
23113;SDS011;11726;50.122;8.832;2023-04-06T08:13:18;13.32;;;9.65;;
23113;SDS011;11726;50.122;8.832;2023-04-06T08:15:47;11.93;;;9.50;;
23113;SDS011;11726;50.122;8.832;2023-04-06T08:18:14;16.67;;;10.18;;
23113;SDS011;11726;50.122;8.832;2023-04-06T08:20:41;13.30;;;9.82;;
23113;SDS011;11726;50.122;8.832;2023-04-06T08:23:08;16.33;;;10.43;;
23113;SDS011;11726;50.122;8.832;2023-04-06T08:25:35;16.95;;;11.02;;
23113;SDS011;11726;50.122;8.832;2023-04-06T08:28:02;12.15;;;9.90;;
23113;SDS011;11726;50.122;8.832;2023-04-06T08:30:30;13.60;;;10.18;;
23113;SDS011;11726;50.122;8.832;2023-04-06T08:32:57;11.85;;;9.93;;
23113;SDS011;11726;50.122;8.832;2023-04-06T08:35:23;15.95;;;9.88;;
23113;SDS011;11726;50.122;8.832;2023-04-06T08:37:50;14.70;;;10.50;;
23113;SDS011;11726;50.122;8.832;2023-04-06T08:40:17;13.70;;;10.27;;
23113;SDS011;11726;50.122;8.832;2023-04-06T08:42:44;15.02;;;11.85;;
23113;SDS011;11726;50.122;8.832;2023-04-06T08:45:18;15.35;;;10.85;;
23113;SDS011;11726;50.122;8.832;2023-04-06T08:47:50;12.50;;;9.75;;
23113;SDS011;11726;50.122;8.832;2023-04-06T08:50:18;13.85;;;10.32;;
23113;SDS011;11726;50.122;8.832;2023-04-06T08:52:46;14.32;;;9.93;;
23113;SDS011;11726;50.122;8.832;2023-04-06T08:55:14;13.00;;;10.10;;
23113;SDS011;11726;50.122;8.832;2023-04-06T08:57:42;15.85;;;10.15;;
23113;SDS011;11726;50.122;8.832;2023-04-06T09:00:10;13.15;;;9.63;;
23113;SDS011;11726;50.122;8.832;2023-04-06T09:02:39;13.45;;;9.60;;
23113;SDS011;11726;50.122;8.832;2023-04-06T09:05:08;15.07;;;9.45;;
23113;SDS011;11726;50.122;8.832;2023-04-06T09:07:36;13.30;;;9.18;;
23113;SDS011;11726;50.122;8.832;2023-04-06T09:10:04;11.18;;;9.10;;
23113;SDS011;11726;50.122;8.832;2023-04-06T09:12:32;13.38;;;9.27;;
23113;SDS011;11726;50.122;8.832;2023-04-06T09:15:00;13.40;;;9.20;;
23113;SDS011;11726;50.122;8.832;2023-04-06T09:17:29;11.35;;;9.18;;
23113;SDS011;11726;50.122;8.832;2023-04-06T09:19:59;13.57;;;9.02;;
23113;SDS011;11726;50.122;8.832;2023-04-06T09:22:34;11.20;;;8.35;;
23113;SDS011;11726;50.122;8.832;2023-04-06T09:25:05;12.07;;;8.48;;
23113;SDS011;11726;50.122;8.832;2023-04-06T09:27:33;11.45;;;8.40;;
23113;SDS011;11726;50.122;8.832;2023-04-06T09:30:08;11.07;;;8.02;;
23113;SDS011;11726;50.122;8.832;2023-04-06T09:32:49;13.60;;;8.57;;
23113;SDS011;11726;50.122;8.832;2023-04-06T09:35:18;15.05;;;8.55;;
23113;SDS011;11726;50.122;8.832;2023-04-06T09:37:50;14.48;;;8.45;;
23113;SDS011;11726;50.122;8.832;2023-04-06T09:40:21;11.75;;;8.43;;
23113;SDS011;11726;50.122;8.832;2023-04-06T09:42:49;14.43;;;8.93;;
23113;SDS011;11726;50.122;8.832;2023-04-06T09:45:18;14.32;;;8.57;;
23113;SDS011;11726;50.122;8.832;2023-04-06T09:47:48;14.85;;;9.57;;
23113;SDS011;11726;50.122;8.832;2023-04-06T09:50:17;15.75;;;9.20;;
23113;SDS011;11726;50.122;8.832;2023-04-06T09:52:50;14.07;;;9.00;;
23113;SDS011;11726;50.122;8.832;2023-04-06T09:55:22;14.02;;;8.82;;
23113;SDS011;11726;50.122;8.832;2023-04-06T09:58:15;15.70;;;9.30;;
23113;SDS011;11726;50.122;8.832;2023-04-06T10:03:55;14.25;;;8.90;;
23113;SDS011;11726;50.122;8.832;2023-04-06T10:06:31;14.88;;;8.85;;
23113;SDS011;11726;50.122;8.832;2023-04-06T10:09:01;15.48;;;9.05;;
23113;SDS011;11726;50.122;8.832;2023-04-06T10:11:33;15.32;;;9.43;;
23113;SDS011;11726;50.122;8.832;2023-04-06T10:14:03;14.85;;;9.55;;
23113;SDS011;11726;50.122;8.832;2023-04-06T10:16:31;16.85;;;9.10;;
23113;SDS011;11726;50.122;8.832;2023-04-06T10:19:06;13.50;;;8.60;;
23113;SDS011;11726;50.122;8.832;2023-04-06T10:21:40;14.95;;;9.15;;
23113;SDS011;11726;50.122;8.832;2023-04-06T10:24:11;15.73;;;9.18;;
23113;SDS011;11726;50.122;8.832;2023-04-06T10:26:38;17.77;;;8.35;;
23113;SDS011;11726;50.122;8.832;2023-04-06T10:29:06;15.75;;;8.93;;
23113;SDS011;11726;50.122;8.832;2023-04-06T10:31:38;17.30;;;8.98;;
23113;SDS011;11726;50.122;8.832;2023-04-06T10:36:35;16.67;;;9.32;;
23113;SDS011;11726;50.122;8.832;2023-04-06T10:39:03;17.35;;;8.82;;
23113;SDS011;11726;50.122;8.832;2023-04-06T10:41:34;14.60;;;8.50;;
23113;SDS011;11726;50.122;8.832;2023-04-06T10:44:02;15.52;;;8.55;;
23113;SDS011;11726;50.122;8.832;2023-04-06T10:46:30;16.13;;;8.77;;
23113;SDS011;11726;50.122;8.832;2023-04-06T10:48:57;15.88;;;8.55;;
23113;SDS011;11726;50.122;8.832;2023-04-06T10:51:37;15.85;;;8.35;;
23113;SDS011;11726;50.122;8.832;2023-04-06T10:54:05;13.95;;;8.52;;
23113;SDS011;11726;50.122;8.832;2023-04-06T10:56:33;13.88;;;8.75;;
23113;SDS011;11726;50.122;8.832;2023-04-06T10:59:03;14.07;;;8.40;;
23113;SDS011;11726;50.122;8.832;2023-04-06T11:01:34;14.50;;;8.57;;
23113;SDS011;11726;50.122;8.832;2023-04-06T11:04:01;13.55;;;8.05;;
23113;SDS011;11726;50.122;8.832;2023-04-06T11:06:29;16.45;;;9.05;;
23113;SDS011;11726;50.122;8.832;2023-04-06T11:08:57;14.02;;;8.18;;
23113;SDS011;11726;50.122;8.832;2023-04-06T11:11:25;15.70;;;8.82;;
23113;SDS011;11726;50.122;8.832;2023-04-06T11:13:54;13.63;;;8.70;;
23113;SDS011;11726;50.122;8.832;2023-04-06T11:16:25;15.48;;;8.77;;
23113;SDS011;11726;50.122;8.832;2023-04-06T11:19:03;15.80;;;8.30;;
23113;SDS011;11726;50.122;8.832;2023-04-06T11:21:42;15.32;;;9.73;;
23113;SDS011;11726;50.122;8.832;2023-04-06T11:26:42;15.70;;;8.75;;
23113;SDS011;11726;50.122;8.832;2023-04-06T11:29:11;15.13;;;8.52;;
23113;SDS011;11726;50.122;8.832;2023-04-06T11:31:42;15.98;;;8.75;;
23113;SDS011;11726;50.122;8.832;2023-04-06T11:34:13;16.05;;;9.07;;
23113;SDS011;11726;50.122;8.832;2023-04-06T11:36:45;14.73;;;9.07;;
23113;SDS011;11726;50.122;8.832;2023-04-06T11:39:13;14.55;;;8.93;;
23113;SDS011;11726;50.122;8.832;2023-04-06T11:41:50;16.52;;;8.68;;
23113;SDS011;11726;50.122;8.832;2023-04-06T11:47:08;16.35;;;9.65;;
23113;SDS011;11726;50.122;8.832;2023-04-06T11:49:37;14.00;;;8.77;;
23113;SDS011;11726;50.122;8.832;2023-04-06T11:54:53;13.27;;;9.52;;
23113;SDS011;11726;50.122;8.832;2023-04-06T11:57:23;14.13;;;9.27;;
23113;SDS011;11726;50.122;8.832;2023-04-06T11:59:54;16.00;;;9.60;;
23113;SDS011;11726;50.122;8.832;2023-04-06T12:02:21;12.80;;;9.25;;
23113;SDS011;11726;50.122;8.832;2023-04-06T12:04:48;14.27;;;9.55;;
23113;SDS011;11726;50.122;8.832;2023-04-06T12:07:15;11.13;;;8.57;;
23113;SDS011;11726;50.122;8.832;2023-04-06T12:09:42;13.57;;;9.88;;
23113;SDS011;11726;50.122;8.832;2023-04-06T12:12:09;11.82;;;8.10;;
23113;SDS011;11726;50.122;8.832;2023-04-06T12:14:36;19.38;;;11.05;;
23113;SDS011;11726;50.122;8.832;2023-04-06T12:17:03;14.82;;;9.50;;
23113;SDS011;11726;50.122;8.832;2023-04-06T12:19:30;13.65;;;9.55;;
23113;SDS011;11726;50.122;8.832;2023-04-06T12:21:58;14.48;;;9.23;;
23113;SDS011;11726;50.122;8.832;2023-04-06T12:24:24;11.50;;;7.85;;
23113;SDS011;11726;50.122;8.832;2023-04-06T12:26:51;10.25;;;7.15;;
23113;SDS011;11726;50.122;8.832;2023-04-06T12:29:34;10.07;;;7.47;;
23113;SDS011;11726;50.122;8.832;2023-04-06T12:32:01;11.27;;;7.18;;
23113;SDS011;11726;50.122;8.832;2023-04-06T12:34:27;10.05;;;7.55;;
23113;SDS011;11726;50.122;8.832;2023-04-06T12:36:54;10.73;;;7.60;;
23113;SDS011;11726;50.122;8.832;2023-04-06T12:39:22;12.02;;;8.35;;
23113;SDS011;11726;50.122;8.832;2023-04-06T12:41:49;11.63;;;8.65;;
23113;SDS011;11726;50.122;8.832;2023-04-06T12:44:16;12.73;;;8.57;;
23113;SDS011;11726;50.122;8.832;2023-04-06T12:46:42;10.60;;;8.32;;
23113;SDS011;11726;50.122;8.832;2023-04-06T12:49:14;13.18;;;8.20;;
23113;SDS011;11726;50.122;8.832;2023-04-06T12:51:43;11.93;;;8.40;;
23113;SDS011;11726;50.122;8.832;2023-04-06T12:54:09;11.32;;;7.70;;
23113;SDS011;11726;50.122;8.832;2023-04-06T12:56:37;10.80;;;7.70;;
23113;SDS011;11726;50.122;8.832;2023-04-06T12:59:04;9.38;;;7.28;;
23113;SDS011;11726;50.122;8.832;2023-04-06T13:01:31;9.00;;;7.38;;
23113;SDS011;11726;50.122;8.832;2023-04-06T13:03:59;10.93;;;8.05;;
23113;SDS011;11726;50.122;8.832;2023-04-06T13:06:25;7.55;;;6.57;;
23113;SDS011;11726;50.122;8.832;2023-04-06T13:08:54;11.65;;;7.65;;
23113;SDS011;11726;50.122;8.832;2023-04-06T13:11:21;9.85;;;7.22;;
23113;SDS011;11726;50.122;8.832;2023-04-06T13:13:52;8.70;;;6.93;;
23113;SDS011;11726;50.122;8.832;2023-04-06T13:16:19;9.43;;;6.60;;
23113;SDS011;11726;50.122;8.832;2023-04-06T13:18:46;8.68;;;6.05;;
23113;SDS011;11726;50.122;8.832;2023-04-06T13:21:16;8.88;;;6.85;;
23113;SDS011;11726;50.122;8.832;2023-04-06T13:23:43;10.70;;;6.85;;
23113;SDS011;11726;50.122;8.832;2023-04-06T13:26:10;9.80;;;6.85;;
23113;SDS011;11726;50.122;8.832;2023-04-06T13:28:37;9.27;;;6.82;;
23113;SDS011;11726;50.122;8.832;2023-04-06T13:31:05;11.40;;;6.75;;
23113;SDS011;11726;50.122;8.832;2023-04-06T13:33:32;11.57;;;7.65;;
23113;SDS011;11726;50.122;8.832;2023-04-06T13:36:00;11.15;;;7.55;;
23113;SDS011;11726;50.122;8.832;2023-04-06T13:38:27;13.88;;;8.85;;
23113;SDS011;11726;50.122;8.832;2023-04-06T13:40:54;12.98;;;7.88;;
23113;SDS011;11726;50.122;8.832;2023-04-06T13:43:21;8.70;;;7.28;;
23113;SDS011;11726;50.122;8.832;2023-04-06T13:45:49;9.75;;;7.22;;
23113;SDS011;11726;50.122;8.832;2023-04-06T13:48:24;12.95;;;8.38;;
23113;SDS011;11726;50.122;8.832;2023-04-06T13:50:52;10.43;;;7.65;;
23113;SDS011;11726;50.122;8.832;2023-04-06T13:53:18;12.30;;;7.95;;
23113;SDS011;11726;50.122;8.832;2023-04-06T13:55:52;11.05;;;7.75;;
23113;SDS011;11726;50.122;8.832;2023-04-06T13:58:22;11.45;;;8.40;;
23113;SDS011;11726;50.122;8.832;2023-04-06T14:00:51;7.68;;;6.55;;
23113;SDS011;11726;50.122;8.832;2023-04-06T14:03:19;10.13;;;5.90;;
23113;SDS011;11726;50.122;8.832;2023-04-06T14:05:46;7.68;;;5.75;;
23113;SDS011;11726;50.122;8.832;2023-04-06T14:08:13;11.70;;;7.35;;
23113;SDS011;11726;50.122;8.832;2023-04-06T14:10:40;8.10;;;6.40;;
23113;SDS011;11726;50.122;8.832;2023-04-06T14:13:08;11.10;;;7.03;;
23113;SDS011;11726;50.122;8.832;2023-04-06T14:15:35;7.88;;;5.55;;
23113;SDS011;11726;50.122;8.832;2023-04-06T14:18:02;9.63;;;6.63;;
23113;SDS011;11726;50.122;8.832;2023-04-06T14:20:31;9.90;;;6.63;;
23113;SDS011;11726;50.122;8.832;2023-04-06T14:23:02;12.90;;;7.55;;
23113;SDS011;11726;50.122;8.832;2023-04-06T14:25:29;9.60;;;7.13;;
23113;SDS011;11726;50.122;8.832;2023-04-06T14:27:57;9.32;;;7.18;;
23113;SDS011;11726;50.122;8.832;2023-04-06T14:30:24;11.95;;;7.72;;
23113;SDS011;11726;50.122;8.832;2023-04-06T14:32:51;11.15;;;8.15;;
23113;SDS011;11726;50.122;8.832;2023-04-06T14:35:18;9.35;;;6.90;;
23113;SDS011;11726;50.122;8.832;2023-04-06T14:37:44;8.23;;;6.28;;
23113;SDS011;11726;50.122;8.832;2023-04-06T14:40:11;10.48;;;6.53;;
23113;SDS011;11726;50.122;8.832;2023-04-06T14:42:38;8.48;;;6.75;;
23113;SDS011;11726;50.122;8.832;2023-04-06T14:45:05;13.10;;;7.65;;
23113;SDS011;11726;50.122;8.832;2023-04-06T14:47:32;8.70;;;6.90;;
23113;SDS011;11726;50.122;8.832;2023-04-06T14:49:59;10.18;;;7.13;;
23113;SDS011;11726;50.122;8.832;2023-04-06T14:52:26;9.48;;;6.60;;
23113;SDS011;11726;50.122;8.832;2023-04-06T14:54:57;8.88;;;6.70;;